createdAt,value
2023-01-08T00:00:18.343Z,13.27
2023-01-08T00:00:51.025Z,12.50
2023-01-08T00:01:25.960Z,11.65
2023-01-08T00:01:58.079Z,10.48
2023-01-08T00:02:30.366Z,10.93
2023-01-08T00:03:05.260Z,11.32
2023-01-08T00:03:38.903Z,10.25
2023-01-08T00:04:11.335Z,11.45
2023-01-08T00:04:46.178Z,9.60
2023-01-08T00:05:18.318Z,12.05
2023-01-08T00:05:50.802Z,11.32
2023-01-08T00:06:28.129Z,13.18
2023-01-08T00:07:00.220Z,11.02
2023-01-08T00:07:32.401Z,10.18
2023-01-08T00:08:05.158Z,10.52
2023-01-08T00:08:39.894Z,10.90
2023-01-08T00:09:12.355Z,11.55
2023-01-08T00:09:44.557Z,10.02
2023-01-08T00:10:19.293Z,11.60
2023-01-08T00:10:54.539Z,12.15
2023-01-08T00:11:29.309Z,10.82
2023-01-08T00:12:01.620Z,9.95
2023-01-08T00:12:34.641Z,11.02
2023-01-08T00:13:10.662Z,10.15
2023-01-08T00:13:43.056Z,10.82
2023-01-08T00:14:17.901Z,10.93
2023-01-08T00:14:50.203Z,10.88
2023-01-08T00:15:22.583Z,10.27
2023-01-08T00:15:57.745Z,11.95
2023-01-08T00:16:30.402Z,12.75
2023-01-08T00:17:05.357Z,11.85
2023-01-08T00:17:37.556Z,10.55
2023-01-08T00:18:09.631Z,10.75
2023-01-08T00:18:45.024Z,11.15
2023-01-08T00:19:17.143Z,11.18
2023-01-08T00:19:49.364Z,11.65
2023-01-08T00:20:24.135Z,11.43
2023-01-08T00:20:56.339Z,11.57
2023-01-08T00:21:33.925Z,10.63
2023-01-08T00:22:06.068Z,12.73
2023-01-08T00:22:38.203Z,12.02
2023-01-08T00:23:14.253Z,10.50
2023-01-08T00:23:46.739Z,10.65
2023-01-08T00:24:21.470Z,11.48
2023-01-08T00:24:53.637Z,9.65
2023-01-08T00:25:25.784Z,11.35
2023-01-08T00:26:00.553Z,10.95
2023-01-08T00:26:32.720Z,11.35
2023-01-08T00:27:04.995Z,11.13
2023-01-08T00:27:39.728Z,10.45
2023-01-08T00:28:12.199Z,10.50
2023-01-08T00:28:47.026Z,12.32
2023-01-08T00:29:19.222Z,11.02
2023-01-08T00:29:51.421Z,11.77
2023-01-08T00:30:26.172Z,10.90
2023-01-08T00:30:58.692Z,10.40
2023-01-08T00:31:30.898Z,10.88
2023-01-08T00:32:05.878Z,11.90
2023-01-08T00:32:38.214Z,11.75
2023-01-08T00:33:10.519Z,12.07
2023-01-08T00:33:45.489Z,11.75
2023-01-08T00:34:17.606Z,11.90
2023-01-08T00:34:49.766Z,10.13
2023-01-08T00:35:24.498Z,10.00
2023-01-08T00:35:56.650Z,10.90
2023-01-08T00:36:31.458Z,11.05
2023-01-08T00:37:06.134Z,11.18
2023-01-08T00:37:38.353Z,10.00
2023-01-08T00:38:10.621Z,9.95
2023-01-08T00:38:46.323Z,10.88
2023-01-08T00:39:18.486Z,12.13
2023-01-08T00:39:50.679Z,12.88
2023-01-08T00:40:25.424Z,11.57
2023-01-08T00:40:57.724Z,10.60
2023-01-08T00:41:29.906Z,12.07
2023-01-08T00:42:04.689Z,11.73
2023-01-08T00:42:36.784Z,12.27
2023-01-08T00:43:09.153Z,12.43
2023-01-08T00:43:41.370Z,11.32
2023-01-08T00:44:16.120Z,13.13
2023-01-08T00:44:48.340Z,11.38
2023-01-08T00:45:20.452Z,11.57
2023-01-08T00:45:55.623Z,11.73
2023-01-08T00:46:28.187Z,11.90
2023-01-08T00:47:00.328Z,13.95
2023-01-08T00:47:35.166Z,10.15
2023-01-08T00:48:07.452Z,11.13
2023-01-08T00:48:39.677Z,9.60
2023-01-08T00:49:14.381Z,11.65
2023-01-08T00:49:46.569Z,10.20
2023-01-08T00:50:18.728Z,11.27
2023-01-08T00:50:53.629Z,12.32
2023-01-08T00:51:26.475Z,11.13
2023-01-08T00:52:01.364Z,10.68
2023-01-08T00:52:36.147Z,11.57
2023-01-08T00:53:08.377Z,10.55
2023-01-08T00:53:40.524Z,11.30
2023-01-08T00:54:15.399Z,11.38
2023-01-08T00:54:47.556Z,11.63
2023-01-08T00:55:20.016Z,10.95
2023-01-08T00:56:02.810Z,11.10
2023-01-08T00:56:34.968Z,11.80
2023-01-08T00:57:07.171Z,10.45
2023-01-08T00:57:42.516Z,10.43
2023-01-08T00:58:14.867Z,10.85
2023-01-08T00:58:47.024Z,11.07
2023-01-08T00:59:22.041Z,11.35
2023-01-08T00:59:54.190Z,11.70
2023-01-08T01:00:26.354Z,11.30
2023-01-08T01:01:01.127Z,11.30
2023-01-08T01:01:33.617Z,11.25
2023-01-08T01:02:06.057Z,10.15
2023-01-08T01:02:41.628Z,10.63
2023-01-08T01:03:13.847Z,11.02
2023-01-08T01:03:46.074Z,9.73
2023-01-08T01:04:21.004Z,11.00
2023-01-08T01:04:53.281Z,11.35
2023-01-08T01:05:25.399Z,10.57
2023-01-08T01:06:04.019Z,10.43
2023-01-08T01:06:36.175Z,10.40
2023-01-08T01:07:13.467Z,10.13
2023-01-08T01:07:45.872Z,9.50
2023-01-08T01:08:18.000Z,9.90
2023-01-08T01:08:52.793Z,11.05
2023-01-08T01:09:25.093Z,9.82
2023-01-08T01:09:57.405Z,12.50
2023-01-08T01:10:32.176Z,10.57
2023-01-08T01:11:07.984Z,10.27
2023-01-08T01:11:40.202Z,10.18
2023-01-08T01:12:14.961Z,10.55
2023-01-08T01:12:47.096Z,10.30
2023-01-08T01:13:19.201Z,12.25
2023-01-08T01:13:54.936Z,12.00
2023-01-08T01:14:27.130Z,9.63
2023-01-08T01:14:59.277Z,10.48
2023-01-08T01:15:34.087Z,10.55
2023-01-08T01:16:06.761Z,10.30
2023-01-08T01:16:40.150Z,10.43
2023-01-08T01:17:15.740Z,10.35
2023-01-08T01:17:47.950Z,10.70
2023-01-08T01:18:20.116Z,11.63
2023-01-08T01:18:56.772Z,11.05
2023-01-08T01:19:28.951Z,9.57
2023-01-08T01:20:01.273Z,11.05
2023-01-08T01:20:36.324Z,10.27
2023-01-08T01:21:13.274Z,10.70
2023-01-08T01:21:45.438Z,10.45
2023-01-08T01:22:22.775Z,9.93
2023-01-08T01:22:54.962Z,10.88
2023-01-08T01:23:27.157Z,10.43
2023-01-08T01:24:03.657Z,10.23
2023-01-08T01:24:36.065Z,10.40
2023-01-08T01:25:09.805Z,9.52
2023-01-08T01:25:45.810Z,10.70
2023-01-08T01:26:19.643Z,9.90
2023-01-08T01:26:51.877Z,9.55
2023-01-08T01:27:27.963Z,10.48
2023-01-08T01:28:00.218Z,10.35
2023-01-08T01:28:32.298Z,9.98
2023-01-08T01:29:07.413Z,10.65
2023-01-08T01:29:39.644Z,9.95
2023-01-08T01:30:12.711Z,10.15
2023-01-08T01:30:47.521Z,11.38
2023-01-08T01:31:20.531Z,9.95
2023-01-08T01:31:52.662Z,9.95
2023-01-08T01:32:27.581Z,11.30
2023-01-08T01:32:59.725Z,9.82
2023-01-08T01:33:31.909Z,10.25
2023-01-08T01:34:06.896Z,10.50
2023-01-08T01:34:39.003Z,11.75
2023-01-08T01:35:11.133Z,10.73
2023-01-08T01:35:45.808Z,10.13
2023-01-08T01:36:20.872Z,11.90
2023-01-08T01:36:55.590Z,9.50
2023-01-08T01:37:30.348Z,9.85
2023-01-08T01:38:02.565Z,10.07
2023-01-08T01:38:37.287Z,9.50
2023-01-08T01:39:10.193Z,9.60
2023-01-08T01:39:43.497Z,10.00
2023-01-08T01:40:18.332Z,9.20
2023-01-08T01:40:50.505Z,10.10
2023-01-08T01:41:26.280Z,10.48
2023-01-08T01:42:00.963Z,10.73
2023-01-08T01:42:42.053Z,10.45
2023-01-08T01:43:14.529Z,10.63
2023-01-08T01:43:49.211Z,9.38
2023-01-08T01:44:41.452Z,10.70
2023-01-08T01:45:23.903Z,11.15
2023-01-08T01:45:56.117Z,10.60
2023-01-08T01:46:36.991Z,11.20
2023-01-08T01:47:25.004Z,12.40
2023-01-08T01:48:02.997Z,10.40
2023-01-08T01:48:35.162Z,11.20
2023-01-08T01:49:14.539Z,10.30
2023-01-08T01:49:54.185Z,10.15
2023-01-08T01:50:33.407Z,11.10
2023-01-08T01:51:08.405Z,9.95
2023-01-08T01:51:46.364Z,11.68
2023-01-08T01:52:18.567Z,10.20
2023-01-08T01:53:02.641Z,10.18
2023-01-08T01:53:37.681Z,9.77
2023-01-08T01:54:13.090Z,9.82
2023-01-08T01:54:48.010Z,10.27
2023-01-08T01:55:20.364Z,10.88
2023-01-08T01:55:55.712Z,10.18
2023-01-08T01:56:28.811Z,10.70
2023-01-08T01:57:01.158Z,9.90
2023-01-08T01:57:36.809Z,10.85
2023-01-08T01:58:14.208Z,10.43
2023-01-08T01:58:46.425Z,10.73
2023-01-08T01:59:21.105Z,13.68
2023-01-08T01:59:54.873Z,12.20
2023-01-08T02:00:27.780Z,12.50
2023-01-08T02:01:07.253Z,13.15
2023-01-08T02:01:41.711Z,10.55
2023-01-08T02:02:17.523Z,10.65
2023-01-08T02:02:50.449Z,9.85
2023-01-08T02:03:24.326Z,10.25
2023-01-08T02:03:59.138Z,10.68
2023-01-08T02:04:31.272Z,11.38
2023-01-08T02:05:03.544Z,12.02
2023-01-08T02:05:43.911Z,9.35
2023-01-08T02:06:24.607Z,11.07
2023-01-08T02:07:06.899Z,10.68
2023-01-08T02:07:46.881Z,11.30
2023-01-08T02:08:28.493Z,11.07
2023-01-08T02:09:07.514Z,10.00
2023-01-08T02:09:46.085Z,13.23
2023-01-08T02:10:24.487Z,11.52
2023-01-08T02:11:06.160Z,10.88
2023-01-08T02:11:46.070Z,11.40
2023-01-08T02:12:28.018Z,15.85
2023-01-08T02:13:08.413Z,13.30
2023-01-08T02:14:25.724Z,11.38
2023-01-08T02:15:03.514Z,12.18
2023-01-08T02:15:45.414Z,12.38
2023-01-08T02:16:24.410Z,11.45
2023-01-08T02:17:02.738Z,11.13
2023-01-08T02:17:47.197Z,13.25
2023-01-08T02:18:21.136Z,11.27
2023-01-08T02:18:58.135Z,11.88
2023-01-08T02:19:41.327Z,11.05
2023-01-08T02:20:17.367Z,11.73
2023-01-08T02:20:55.709Z,11.20
2023-01-08T02:21:39.313Z,12.13
2023-01-08T02:22:24.587Z,12.10
2023-01-08T02:23:15.162Z,11.80
2023-01-08T02:24:42.887Z,10.73
2023-01-08T02:25:22.897Z,12.32
2023-01-08T02:26:18.661Z,12.48
2023-01-08T02:26:54.139Z,10.73
2023-01-08T02:27:31.054Z,12.20
2023-01-08T02:28:11.931Z,11.45
2023-01-08T02:28:50.146Z,11.30
2023-01-08T02:29:25.683Z,14.25
2023-01-08T02:30:01.217Z,11.77
2023-01-08T02:30:33.494Z,11.93
2023-01-08T02:31:06.428Z,11.35
2023-01-08T02:31:44.133Z,11.30
2023-01-08T02:32:17.013Z,12.93
2023-01-08T02:32:49.261Z,12.68
2023-01-08T02:33:25.733Z,14.20
2023-01-08T02:33:58.143Z,14.65
2023-01-08T02:34:32.513Z,13.63
2023-01-08T02:35:08.537Z,13.73
2023-01-08T02:35:46.063Z,12.90
2023-01-08T02:36:26.463Z,11.63
2023-01-08T02:37:34.676Z,12.48
2023-01-08T02:38:09.647Z,10.90
2023-01-08T02:38:53.168Z,10.95
2023-01-08T02:39:57.369Z,11.27
2023-01-08T02:40:34.508Z,12.00
2023-01-08T02:41:12.620Z,11.82
2023-01-08T02:41:59.923Z,11.15
2023-01-08T02:42:40.483Z,11.27
2023-01-08T02:43:20.750Z,11.23
2023-01-08T02:43:57.305Z,14.05
2023-01-08T02:44:40.278Z,12.65
2023-01-08T02:45:28.932Z,11.70
2023-01-08T02:46:02.795Z,15.63
2023-01-08T02:46:38.024Z,14.20
2023-01-08T02:47:20.885Z,12.40
2023-01-08T02:47:56.967Z,11.50
2023-01-08T02:48:38.107Z,13.95
2023-01-08T02:49:15.357Z,11.57
2023-01-08T02:49:49.163Z,11.93
2023-01-08T02:50:27.040Z,13.23
2023-01-08T02:51:08.945Z,12.15
2023-01-08T02:51:45.780Z,12.18
2023-01-08T02:52:19.778Z,12.57
2023-01-08T02:53:01.469Z,12.02
2023-01-08T02:53:37.949Z,12.75
2023-01-08T02:54:18.357Z,12.70
2023-01-08T02:55:25.283Z,13.35
2023-01-08T02:56:03.323Z,11.43
2023-01-08T02:56:42.988Z,12.25
2023-01-08T02:57:17.346Z,11.80
2023-01-08T02:57:52.742Z,13.90
2023-01-08T02:58:27.972Z,12.82
2023-01-08T02:59:02.235Z,11.70
2023-01-08T02:59:38.205Z,11.93
2023-01-08T03:00:12.697Z,11.13
2023-01-08T03:00:49.586Z,12.48
2023-01-08T03:01:24.311Z,10.70
2023-01-08T03:01:57.643Z,11.23
2023-01-08T03:02:38.278Z,13.10
2023-01-08T03:03:14.855Z,11.95
2023-01-08T03:03:51.385Z,11.05
2023-01-08T03:04:28.407Z,11.90
2023-01-08T03:05:05.583Z,12.43
2023-01-08T03:05:41.135Z,12.05
2023-01-08T03:06:19.031Z,10.82
2023-01-08T03:06:51.831Z,11.95
2023-01-08T03:07:24.093Z,12.70
2023-01-08T03:07:59.097Z,12.18
2023-01-08T03:08:34.210Z,13.20
2023-01-08T03:09:06.617Z,11.63
2023-01-08T03:09:41.440Z,10.93
2023-01-08T03:10:13.922Z,13.02
2023-01-08T03:10:52.729Z,10.98
2023-01-08T03:11:30.183Z,11.85
2023-01-08T03:12:09.664Z,12.15
2023-01-08T03:12:53.937Z,11.32
2023-01-08T03:13:32.619Z,14.43
2023-01-08T03:14:09.885Z,11.55
2023-01-08T03:14:50.697Z,10.75
2023-01-08T03:15:30.524Z,11.45
2023-01-08T03:16:10.002Z,11.75
2023-01-08T03:16:47.760Z,11.93
2023-01-08T03:17:22.619Z,11.52
2023-01-08T03:18:02.361Z,11.77
2023-01-08T03:18:38.230Z,10.75
2023-01-08T03:19:15.491Z,12.75
2023-01-08T03:19:55.314Z,11.57
2023-01-08T03:20:27.672Z,11.32
2023-01-08T03:21:01.362Z,11.07
2023-01-08T03:21:38.220Z,12.23
2023-01-08T03:22:14.809Z,10.75
2023-01-08T03:22:52.287Z,11.75
2023-01-08T03:23:26.898Z,11.65
2023-01-08T03:23:59.499Z,11.25
2023-01-08T03:24:37.301Z,13.00
2023-01-08T03:25:10.965Z,11.88
2023-01-08T03:25:46.274Z,11.88
2023-01-08T03:26:25.986Z,11.15
2023-01-08T03:27:02.400Z,12.27
2023-01-08T03:27:43.118Z,11.02
2023-01-08T03:28:24.552Z,11.52
2023-01-08T03:28:58.032Z,11.13
2023-01-08T03:29:31.057Z,11.82
2023-01-08T03:30:07.391Z,12.02
2023-01-08T03:30:41.544Z,11.43
2023-01-08T03:31:16.558Z,12.27
2023-01-08T03:31:53.454Z,12.20
2023-01-08T03:32:29.367Z,12.15
2023-01-08T03:33:02.871Z,12.10
2023-01-08T03:33:39.392Z,11.35
2023-01-08T03:34:13.772Z,12.05
2023-01-08T03:34:48.918Z,11.10
2023-01-08T03:35:26.872Z,13.18
2023-01-08T03:36:04.100Z,11.82
2023-01-08T03:36:41.951Z,11.98
2023-01-08T03:37:16.121Z,13.73
2023-01-08T03:37:55.204Z,10.95
2023-01-08T03:38:32.497Z,11.43
2023-01-08T03:39:09.900Z,13.07
2023-01-08T03:39:47.822Z,12.23
2023-01-08T03:40:26.657Z,12.93
2023-01-08T03:41:05.652Z,11.38
2023-01-08T03:41:40.346Z,10.70
2023-01-08T03:42:15.636Z,12.10
2023-01-08T03:42:50.388Z,12.55
2023-01-08T03:43:25.157Z,11.98
2023-01-08T03:43:57.719Z,11.43
2023-01-08T03:44:29.874Z,11.13
2023-01-08T03:45:05.439Z,12.02
2023-01-08T03:45:39.113Z,11.23
2023-01-08T03:46:16.665Z,13.77
2023-01-08T03:46:57.061Z,12.07
2023-01-08T03:47:31.112Z,12.73
2023-01-08T03:48:04.726Z,12.20
2023-01-08T03:48:40.782Z,11.55
2023-01-08T03:49:14.844Z,11.93
2023-01-08T03:49:49.382Z,12.75
2023-01-08T03:50:28.234Z,12.95
2023-01-08T03:51:00.512Z,11.85
2023-01-08T03:51:40.290Z,11.93
2023-01-08T03:52:25.469Z,11.88
2023-01-08T03:52:59.818Z,12.30
2023-01-08T03:53:32.828Z,12.40
2023-01-08T03:54:07.700Z,13.15
2023-01-08T03:54:39.831Z,15.88
2023-01-08T03:55:11.968Z,13.10
2023-01-08T03:55:46.672Z,13.55
2023-01-08T03:56:18.774Z,14.50
2023-01-08T03:56:50.926Z,13.15
2023-01-08T03:57:26.014Z,13.20
2023-01-08T03:58:00.892Z,11.63
2023-01-08T03:58:35.873Z,12.60
2023-01-08T03:59:08.211Z,11.57
2023-01-08T03:59:40.342Z,12.88
2023-01-08T04:00:16.593Z,12.57
2023-01-08T04:00:48.769Z,11.57
2023-01-08T04:01:21.005Z,12.25
2023-01-08T04:01:55.981Z,13.77
2023-01-08T04:02:28.381Z,12.10
2023-01-08T04:03:01.080Z,11.23
2023-01-08T04:03:35.807Z,12.60
2023-01-08T04:04:08.732Z,10.50
2023-01-08T04:04:41.128Z,11.48
2023-01-08T04:05:15.960Z,12.00
2023-01-08T04:05:48.117Z,12.75
2023-01-08T04:06:20.291Z,12.35
2023-01-08T04:06:55.764Z,12.02
2023-01-08T04:07:28.000Z,12.80
2023-01-08T04:08:02.700Z,11.90
2023-01-08T04:08:34.811Z,12.07
2023-01-08T04:09:07.230Z,14.02
2023-01-08T04:09:39.635Z,12.02
2023-01-08T04:10:14.467Z,13.38
2023-01-08T04:10:46.786Z,11.98
2023-01-08T04:11:19.106Z,11.80
2023-01-08T04:11:51.721Z,12.82
2023-01-08T04:12:26.759Z,11.55
2023-01-08T04:13:01.479Z,13.07
2023-01-08T04:13:33.550Z,11.63
2023-01-08T04:14:08.389Z,12.18
2023-01-08T04:14:40.505Z,11.95
2023-01-08T04:15:15.267Z,12.02
2023-01-08T04:15:48.493Z,11.98
2023-01-08T04:16:20.686Z,13.80
2023-01-08T04:16:55.391Z,13.68
2023-01-08T04:17:27.797Z,11.93
2023-01-08T04:18:00.008Z,12.98
2023-01-08T04:18:34.875Z,12.23
2023-01-08T04:19:07.022Z,10.65
2023-01-08T04:19:39.176Z,11.90
2023-01-08T04:20:14.647Z,12.00
2023-01-08T04:20:47.869Z,12.10
2023-01-08T04:21:20.015Z,14.10
2023-01-08T04:21:55.076Z,11.70
2023-01-08T04:22:28.520Z,12.85
2023-01-08T04:23:03.219Z,11.98
2023-01-08T04:23:35.492Z,11.95
2023-01-08T04:24:08.293Z,11.77
2023-01-08T04:24:43.067Z,11.23
2023-01-08T04:25:15.329Z,13.75
2023-01-08T04:25:47.563Z,12.18
2023-01-08T04:26:22.266Z,12.25
2023-01-08T04:26:54.454Z,11.35
2023-01-08T04:27:27.197Z,11.43
2023-01-08T04:28:04.514Z,11.20
2023-01-08T04:28:37.233Z,12.98
2023-01-08T04:29:09.378Z,12.68
2023-01-08T04:29:44.213Z,11.30
2023-01-08T04:30:16.422Z,12.40
2023-01-08T04:30:51.204Z,13.27
2023-01-08T04:31:23.553Z,12.18
2023-01-08T04:31:55.770Z,13.30
2023-01-08T04:32:30.552Z,12.15
2023-01-08T04:33:02.647Z,12.65
2023-01-08T04:33:36.786Z,12.63
2023-01-08T04:34:21.838Z,12.77
2023-01-08T04:34:55.845Z,13.95
2023-01-08T04:35:30.570Z,13.40
2023-01-08T04:36:03.133Z,13.75
2023-01-08T04:36:37.893Z,13.35
2023-01-08T04:37:10.032Z,12.30
2023-01-08T04:37:42.169Z,14.13
2023-01-08T04:38:16.880Z,12.07
2023-01-08T04:38:49.004Z,12.82
2023-01-08T04:39:21.160Z,11.27
2023-01-08T04:39:55.836Z,15.02
2023-01-08T04:40:28.032Z,12.90
2023-01-08T04:41:01.705Z,13.48
2023-01-08T04:41:36.427Z,12.85
2023-01-08T04:42:08.574Z,11.55
2023-01-08T04:42:40.735Z,11.70
2023-01-08T04:43:17.974Z,14.27
2023-01-08T04:43:50.048Z,13.18
2023-01-08T04:44:22.743Z,14.65
2023-01-08T04:44:57.446Z,14.38
2023-01-08T04:45:29.551Z,12.82
2023-01-08T04:46:03.592Z,12.13
2023-01-08T04:46:35.820Z,13.00
2023-01-08T04:47:10.735Z,17.17
2023-01-08T04:47:42.895Z,13.45
2023-01-08T04:48:14.997Z,16.23
2023-01-08T04:48:49.683Z,14.45
2023-01-08T04:49:21.942Z,13.63
2023-01-08T04:49:54.122Z,14.35
2023-01-08T04:50:30.257Z,14.80
2023-01-08T04:51:03.828Z,13.82
2023-01-08T04:51:35.932Z,14.05
2023-01-08T04:52:10.813Z,13.77
2023-01-08T04:52:43.004Z,12.55
2023-01-08T04:53:15.121Z,12.80
2023-01-08T04:53:49.930Z,13.00
2023-01-08T04:54:22.057Z,13.65
2023-01-08T04:54:54.289Z,13.00
2023-01-08T04:55:29.057Z,12.00
2023-01-08T04:56:04.521Z,14.82
2023-01-08T04:56:36.707Z,11.85
2023-01-08T04:57:11.567Z,13.02
2023-01-08T04:57:43.791Z,12.80
2023-01-08T04:58:18.640Z,13.57
2023-01-08T04:58:53.337Z,11.45
2023-01-08T04:59:25.448Z,13.50
2023-01-08T04:59:57.565Z,13.13
2023-01-08T05:00:32.528Z,11.98
2023-01-08T05:01:11.348Z,12.82
2023-01-08T05:01:46.291Z,12.85
2023-01-08T05:02:18.806Z,11.70
2023-01-08T05:02:51.101Z,11.38
2023-01-08T05:03:26.038Z,14.00
2023-01-08T05:04:00.591Z,12.77
2023-01-08T05:04:35.273Z,13.32
2023-01-08T05:05:08.383Z,11.80
2023-01-08T05:05:40.544Z,11.90
2023-01-08T05:06:12.700Z,13.30
2023-01-08T05:06:47.414Z,11.60
2023-01-08T05:07:19.598Z,11.73
2023-01-08T05:07:51.695Z,12.27
2023-01-08T05:08:26.361Z,12.52
2023-01-08T05:08:59.014Z,11.55
2023-01-08T05:09:31.361Z,11.45
2023-01-08T05:10:06.686Z,13.65
2023-01-08T05:10:38.775Z,12.10
2023-01-08T05:11:10.912Z,12.30
2023-01-08T05:11:46.004Z,11.43
2023-01-08T05:12:18.381Z,12.52
2023-01-08T05:12:50.465Z,11.32
2023-01-08T05:13:27.790Z,12.23
2023-01-08T05:13:59.880Z,12.07
2023-01-08T05:14:32.023Z,12.15
2023-01-08T05:15:07.461Z,13.55
2023-01-08T05:15:39.626Z,11.27
2023-01-08T05:16:11.840Z,11.55
2023-01-08T05:16:46.599Z,11.23
2023-01-08T05:17:18.747Z,11.60
2023-01-08T05:17:58.917Z,13.88
2023-01-08T05:18:33.973Z,10.90
2023-01-08T05:19:06.089Z,13.85
2023-01-08T05:19:38.551Z,13.35
2023-01-08T05:20:14.165Z,12.88
2023-01-08T05:20:46.335Z,11.52
2023-01-08T05:21:18.572Z,13.00
2023-01-08T05:21:53.389Z,11.60
2023-01-08T05:22:25.499Z,12.25
2023-01-08T05:22:58.669Z,12.82
2023-01-08T05:23:34.140Z,11.43
2023-01-08T05:24:07.013Z,12.65
2023-01-08T05:24:39.132Z,13.00
2023-01-08T05:25:13.839Z,12.25
2023-01-08T05:25:48.998Z,11.43
2023-01-08T05:26:21.186Z,10.57
2023-01-08T05:26:55.984Z,11.38
2023-01-08T05:27:29.250Z,10.65
2023-01-08T05:28:01.503Z,11.38
2023-01-08T05:28:38.787Z,11.65
2023-01-08T05:29:11.021Z,13.20
2023-01-08T05:29:46.052Z,12.73
2023-01-08T05:30:18.348Z,12.43
2023-01-08T05:30:51.498Z,12.40
2023-01-08T05:31:26.378Z,12.32
2023-01-08T05:31:58.507Z,11.85
2023-01-08T05:32:30.669Z,13.98
2023-01-08T05:33:05.514Z,11.95
2023-01-08T05:33:37.819Z,13.45
2023-01-08T05:34:10.214Z,12.52
2023-01-08T05:34:44.979Z,13.38
2023-01-08T05:35:17.223Z,17.38
2023-01-08T05:35:49.824Z,15.05
2023-01-08T05:36:24.601Z,13.57
2023-01-08T05:36:56.732Z,12.93
2023-01-08T05:37:28.841Z,14.65
2023-01-08T05:38:03.660Z,13.88
2023-01-08T05:38:36.115Z,12.35
2023-01-08T05:39:08.352Z,11.50
2023-01-08T05:39:43.067Z,13.57
2023-01-08T05:40:15.191Z,12.27
2023-01-08T05:40:47.307Z,12.80
2023-01-08T05:41:22.077Z,13.02
2023-01-08T05:41:54.206Z,12.02
2023-01-08T05:42:26.444Z,13.43
2023-01-08T05:43:02.413Z,12.32
2023-01-08T05:43:37.577Z,12.63
2023-01-08T05:44:10.734Z,11.45
2023-01-08T05:44:45.437Z,13.13
2023-01-08T05:45:17.717Z,12.57
2023-01-08T05:45:49.844Z,12.18
2023-01-08T05:46:24.873Z,14.10
2023-01-08T05:46:58.086Z,12.65
2023-01-08T05:47:30.689Z,12.90
2023-01-08T05:48:08.673Z,12.65
2023-01-08T05:48:41.118Z,12.30
2023-01-08T05:49:13.952Z,12.88
2023-01-08T05:49:49.338Z,12.85
2023-01-08T05:50:21.482Z,12.57
2023-01-08T05:50:53.626Z,12.07
2023-01-08T05:51:28.335Z,13.38
2023-01-08T05:52:00.520Z,12.90
2023-01-08T05:52:33.183Z,12.82
2023-01-08T05:53:10.212Z,12.60
2023-01-08T05:53:42.504Z,12.90
2023-01-08T05:54:14.679Z,12.30
2023-01-08T05:54:49.428Z,13.88
2023-01-08T05:55:24.013Z,12.98
2023-01-08T05:56:00.815Z,11.70
2023-01-08T05:56:35.521Z,13.23
2023-01-08T05:57:07.786Z,12.45
2023-01-08T05:57:39.972Z,13.85
2023-01-08T05:58:12.434Z,12.27
2023-01-08T05:58:49.801Z,11.98
2023-01-08T05:59:21.992Z,15.25
2023-01-08T05:59:54.065Z,12.60
2023-01-08T06:00:28.834Z,15.50
2023-01-08T06:01:06.090Z,14.93
2023-01-08T06:01:38.291Z,14.00
2023-01-08T06:02:16.009Z,13.65
2023-01-08T06:02:48.701Z,13.18
2023-01-08T06:03:21.280Z,13.93
2023-01-08T06:03:59.125Z,13.20
2023-01-08T06:04:31.349Z,13.60
2023-01-08T06:05:04.038Z,14.90
2023-01-08T06:05:38.804Z,14.38
2023-01-08T06:06:11.734Z,14.27
2023-01-08T06:06:43.914Z,18.88
2023-01-08T06:07:18.593Z,15.48
2023-01-08T06:07:50.784Z,14.00
2023-01-08T06:08:22.850Z,14.13
2023-01-08T06:08:57.523Z,15.10
2023-01-08T06:09:29.656Z,14.13
2023-01-08T06:10:01.788Z,15.50
2023-01-08T06:10:36.554Z,13.00
2023-01-08T06:11:11.615Z,12.55
2023-01-08T06:11:43.716Z,13.32
2023-01-08T06:12:18.373Z,13.50
2023-01-08T06:12:50.504Z,14.85
2023-01-08T06:13:22.651Z,12.65
2023-01-08T06:13:59.918Z,13.05
2023-01-08T06:14:32.227Z,16.63
2023-01-08T06:15:05.017Z,15.55
2023-01-08T06:15:40.858Z,13.00
2023-01-08T06:16:13.540Z,12.95
2023-01-08T06:16:48.459Z,13.98
2023-01-08T06:17:20.571Z,15.70
2023-01-08T06:17:52.737Z,14.98
2023-01-08T06:18:27.556Z,13.18
2023-01-08T06:18:59.680Z,13.25
2023-01-08T06:19:31.894Z,12.95
2023-01-08T06:20:07.429Z,15.48
2023-01-08T06:20:39.535Z,13.90
2023-01-08T06:21:14.289Z,15.25
2023-01-08T06:21:46.610Z,12.90
2023-01-08T06:22:18.717Z,14.05
2023-01-08T06:22:53.418Z,13.40
2023-01-08T06:23:26.086Z,15.65
2023-01-08T06:24:00.807Z,14.68
2023-01-08T06:24:33.080Z,14.00
2023-01-08T06:25:08.724Z,14.13
2023-01-08T06:25:40.895Z,13.70
2023-01-08T06:26:13.012Z,13.75
2023-01-08T06:26:47.736Z,13.15
2023-01-08T06:27:19.848Z,14.02
2023-01-08T06:27:52.311Z,13.00
2023-01-08T06:28:25.023Z,12.77
2023-01-08T06:29:02.340Z,12.40
2023-01-08T06:29:34.572Z,14.70
2023-01-08T06:30:08.386Z,15.35
2023-01-08T06:30:43.142Z,13.65
2023-01-08T06:31:15.279Z,14.20
2023-01-08T06:31:47.436Z,12.45
2023-01-08T06:32:22.160Z,14.43
2023-01-08T06:32:56.435Z,14.23
2023-01-08T06:33:29.327Z,15.68
2023-01-08T06:34:04.132Z,14.05
2023-01-08T06:34:36.340Z,14.18
2023-01-08T06:35:09.703Z,14.50
2023-01-08T06:35:44.611Z,14.40
2023-01-08T06:36:16.788Z,14.63
2023-01-08T06:36:48.933Z,13.40
2023-01-08T06:37:23.635Z,14.75
2023-01-08T06:37:56.441Z,13.85
2023-01-08T06:38:31.354Z,15.05
2023-01-08T06:39:08.475Z,15.07
2023-01-08T06:39:40.664Z,14.68
2023-01-08T06:40:13.004Z,15.45
2023-01-08T06:40:47.779Z,14.65
2023-01-08T06:41:19.925Z,17.60
2023-01-08T06:41:52.100Z,16.27
2023-01-08T06:42:26.970Z,16.27
2023-01-08T06:43:01.842Z,13.13
2023-01-08T06:43:36.060Z,14.30
2023-01-08T06:44:13.888Z,13.82
2023-01-08T06:44:46.052Z,13.18
2023-01-08T06:45:18.386Z,12.75
2023-01-08T06:45:58.469Z,13.68
2023-01-08T06:46:30.883Z,13.10
2023-01-08T06:47:03.158Z,14.55
2023-01-08T06:47:37.919Z,14.93
2023-01-08T06:48:10.052Z,16.10
2023-01-08T06:48:42.192Z,14.32
2023-01-08T06:49:17.610Z,14.93
2023-01-08T06:49:49.703Z,14.07
2023-01-08T06:50:21.839Z,12.90
2023-01-08T06:50:57.432Z,14.57
2023-01-08T06:51:29.550Z,12.95
2023-01-08T06:52:01.647Z,12.98
2023-01-08T06:52:36.445Z,12.68
2023-01-08T06:53:09.382Z,13.85
2023-01-08T06:53:44.100Z,12.40
2023-01-08T06:54:18.700Z,10.90
2023-01-08T06:54:50.821Z,11.88
2023-01-08T06:55:26.247Z,11.95
2023-01-08T06:55:58.990Z,12.23
2023-01-08T06:56:31.258Z,13.30
2023-01-08T06:57:06.130Z,14.05
2023-01-08T06:57:41.661Z,14.48
2023-01-08T06:58:13.966Z,13.27
2023-01-08T06:58:48.669Z,13.85
2023-01-08T06:59:23.399Z,12.45
2023-01-08T06:59:58.143Z,12.30
2023-01-08T07:00:30.447Z,13.60
2023-01-08T07:01:02.931Z,13.07
2023-01-08T07:01:37.711Z,12.80
2023-01-08T07:02:13.690Z,12.57
2023-01-08T07:02:46.187Z,12.35
2023-01-08T07:03:21.877Z,12.20
2023-01-08T07:03:54.180Z,12.23
2023-01-08T07:04:26.287Z,12.65
2023-01-08T07:05:01.335Z,13.02
2023-01-08T07:05:33.435Z,12.50
2023-01-08T07:06:06.333Z,12.05
2023-01-08T07:06:41.087Z,11.93
2023-01-08T07:07:14.302Z,13.60
2023-01-08T07:07:49.203Z,12.75
2023-01-08T07:08:23.263Z,12.27
2023-01-08T07:08:55.573Z,11.98
2023-01-08T07:09:30.274Z,13.38
2023-01-08T07:10:02.379Z,12.43
2023-01-08T07:10:35.052Z,11.65
2023-01-08T07:11:09.750Z,12.43
2023-01-08T07:11:42.694Z,15.07
2023-01-08T07:12:14.822Z,12.68
2023-01-08T07:12:51.804Z,12.27
2023-01-08T07:13:24.489Z,13.25
2023-01-08T07:13:56.750Z,12.43
2023-01-08T07:14:34.090Z,13.30
2023-01-08T07:15:07.673Z,13.95
2023-01-08T07:15:39.860Z,13.38
2023-01-08T07:16:16.774Z,13.52
2023-01-08T07:16:48.985Z,11.73
2023-01-08T07:17:23.795Z,12.15
2023-01-08T07:17:56.029Z,12.13
2023-01-08T07:18:28.154Z,15.25
2023-01-08T07:19:02.944Z,12.02
2023-01-08T07:19:35.041Z,13.57
2023-01-08T07:20:09.735Z,16.25
2023-01-08T07:20:47.119Z,13.27
2023-01-08T07:21:21.114Z,14.43
2023-01-08T07:21:53.180Z,13.05
2023-01-08T07:22:28.576Z,11.88
2023-01-08T07:23:02.263Z,13.15
2023-01-08T07:23:35.183Z,13.25
2023-01-08T07:24:10.710Z,13.40
2023-01-08T07:24:42.833Z,13.00
2023-01-08T07:25:14.978Z,13.07
2023-01-08T07:25:50.162Z,14.40
2023-01-08T07:26:22.243Z,13.73
2023-01-08T07:26:57.026Z,13.95
2023-01-08T07:27:29.126Z,13.82
2023-01-08T07:28:02.134Z,13.52
2023-01-08T07:28:37.381Z,13.30